createdAt,value
2019-01-18T00:00:13.861Z,931.81
2019-01-18T00:01:14.109Z,931.79
2019-01-18T00:02:14.792Z,931.84
2019-01-18T00:03:15.239Z,931.79
2019-01-18T00:04:15.927Z,931.82
2019-01-18T00:05:16.887Z,931.79
2019-01-18T00:06:17.291Z,931.8
2019-01-18T00:07:17.706Z,931.87
2019-01-18T00:08:18.395Z,931.87
2019-01-18T00:09:18.796Z,931.87
2019-01-18T00:10:19.944Z,931.91
2019-01-18T00:11:20.205Z,931.92
2019-01-18T00:12:20.608Z,931.95
2019-01-18T00:13:21.296Z,931.92
2019-01-18T00:14:21.707Z,931.96
2019-01-18T00:15:21.947Z,931.95
2019-01-18T00:16:22.626Z,931.98
2019-01-18T00:17:23.029Z,931.95
2019-01-18T00:18:23.268Z,931.99
2019-01-18T00:19:23.952Z,932
2019-01-18T00:20:24.645Z,932.03
2019-01-18T00:21:25.164Z,931.98
2019-01-18T00:22:26.293Z,932.05
2019-01-18T00:23:26.526Z,932.07
2019-01-18T00:24:27.874Z,932
2019-01-18T00:25:28.555Z,932.01
2019-01-18T00:26:29.237Z,932.02
2019-01-18T00:27:29.947Z,932.07
2019-01-18T00:28:30.361Z,932.01
2019-01-18T00:29:31.320Z,931.95
2019-01-18T00:30:32.001Z,932.06
2019-01-18T00:31:32.553Z,932.04
2019-01-18T00:32:32.952Z,932.09
2019-01-18T00:33:34.078Z,931.96
2019-01-18T00:34:35.484Z,932.02
2019-01-18T00:35:36.172Z,932.03
2019-01-18T00:36:36.580Z,932.03
2019-01-18T00:37:36.983Z,932.03
2019-01-18T00:38:37.665Z,931.98
2019-01-18T00:39:37.901Z,931.94
2019-01-18T00:40:39.027Z,931.97
2019-01-18T00:41:39.421Z,932.02
2019-01-18T00:42:39.823Z,932.03
2019-01-18T00:43:40.227Z,932.04
2019-01-18T00:44:40.630Z,931.99
2019-01-18T00:45:41.032Z,931.98
2019-01-18T00:46:41.471Z,931.97
2019-01-18T00:47:42.596Z,932.02
2019-01-18T00:48:43.291Z,932.02
2019-01-18T00:49:43.695Z,931.97
2019-01-18T00:50:44.094Z,931.99
2019-01-18T00:51:44.654Z,932.02
2019-01-18T00:52:45.062Z,932.01
2019-01-18T00:53:46.023Z,932.02
2019-01-18T00:54:47.159Z,931.96
2019-01-18T00:55:47.843Z,932.05
2019-01-18T00:56:48.963Z,931.99
2019-01-18T00:57:49.652Z,932.03
2019-01-18T00:58:50.056Z,932.02
2019-01-18T00:59:50.475Z,932.02
2019-01-18T01:00:50.878Z,931.92
2019-01-18T01:01:52.006Z,931.95
2019-01-18T01:02:53.009Z,931.92
2019-01-18T01:03:53.692Z,931.85
2019-01-18T01:04:54.652Z,931.95
2019-01-18T01:05:55.333Z,931.97
2019-01-18T01:06:56.292Z,931.95
2019-01-18T01:07:56.693Z,932
2019-01-18T01:08:57.097Z,931.96
2019-01-18T01:09:57.783Z,931.98
2019-01-18T01:10:58.463Z,931.99
2019-01-18T01:11:59.601Z,931.97
2019-01-18T01:13:00.005Z,931.96
2019-01-18T01:14:01.132Z,932.02
2019-01-18T01:15:02.091Z,932.04
2019-01-18T01:16:03.216Z,932.01
2019-01-18T01:17:03.900Z,932.02
2019-01-18T01:18:04.305Z,932.06
2019-01-18T01:19:04.708Z,932.06
2019-01-18T01:20:05.669Z,931.83
2019-01-18T01:21:06.071Z,931.94
2019-01-18T01:22:06.946Z,932.04
2019-01-18T01:23:07.637Z,931.89
2019-01-18T01:24:08.317Z,931.96
2019-01-18T01:25:08.718Z,931.97
2019-01-18T01:26:09.421Z,931.9
2019-01-18T01:27:10.107Z,932
2019-01-18T01:28:11.067Z,931.98
2019-01-18T01:29:11.749Z,931.94
2019-01-18T01:30:12.153Z,931.92
2019-01-18T01:31:13.281Z,931.95
2019-01-18T01:32:14.362Z,932.03
2019-01-18T01:33:15.486Z,931.94
2019-01-18T01:34:16.615Z,931.89
2019-01-18T01:35:17.019Z,931.95
2019-01-18T01:36:17.726Z,931.98
2019-01-18T01:37:18.405Z,932.02
2019-01-18T01:38:18.812Z,932.05
2019-01-18T01:39:19.938Z,932.05
2019-01-18T01:40:20.618Z,931.97
2019-01-18T01:41:21.747Z,932.05
2019-01-18T01:42:22.556Z,931.98
2019-01-18T01:43:22.971Z,932.04
2019-01-18T01:44:23.655Z,932
2019-01-18T01:45:23.901Z,932.12
2019-01-18T01:46:25.311Z,932.06
2019-01-18T01:47:25.719Z,932.04
2019-01-18T01:48:26.123Z,932.08
2019-01-18T01:49:26.531Z,932.03
2019-01-18T01:50:27.663Z,932.09
2019-01-18T01:51:29.069Z,932.04
2019-01-18T01:52:29.896Z,932.1
2019-01-18T01:53:30.303Z,932.12
2019-01-18T01:54:30.727Z,932.11
2019-01-18T01:55:31.440Z,932.09
2019-01-18T01:56:31.849Z,932.1
2019-01-18T01:57:32.978Z,932.07
2019-01-18T01:58:33.667Z,932.04
2019-01-18T01:59:34.348Z,932.01
2019-01-18T02:00:35.313Z,932.03
2019-01-18T02:01:35.721Z,931.99
2019-01-18T02:02:36.404Z,932.03
2019-01-18T02:03:36.814Z,932
2019-01-18T02:04:37.215Z,932.02
2019-01-18T02:05:37.619Z,932.03
2019-01-18T02:06:38.586Z,932.01
2019-01-18T02:07:39.038Z,931.98
2019-01-18T02:08:40.027Z,932.01
2019-01-18T02:09:41.158Z,932.02
2019-01-18T02:10:42.285Z,932.04
2019-01-18T02:11:42.691Z,932.06
2019-01-18T02:12:43.507Z,932.06
2019-01-18T02:13:44.025Z,932.08
2019-01-18T02:14:44.987Z,932.12
2019-01-18T02:15:45.399Z,932.16
2019-01-18T02:16:46.548Z,932.21
2019-01-18T02:17:46.955Z,932.24
2019-01-18T02:18:48.082Z,932.33
2019-01-18T02:19:48.491Z,932.44
2019-01-18T02:20:49.179Z,932.5
2019-01-18T02:21:49.590Z,932.67
2019-01-18T02:22:49.991Z,932.57
2019-01-18T02:23:51.271Z,932.51
2019-01-18T02:24:51.956Z,932.74
2019-01-18T02:25:52.649Z,932.79
2019-01-18T02:26:53.776Z,932.77
2019-01-18T02:27:54.904Z,932.76
2019-01-18T02:28:55.585Z,932.83
2019-01-18T02:29:57.079Z,932.8
2019-01-18T02:30:58.047Z,932.88
2019-01-18T02:31:58.464Z,932.88
2019-01-18T02:32:59.573Z,932.91
2019-01-18T02:34:00.258Z,932.96
2019-01-18T02:35:00.673Z,932.91
2019-01-18T02:36:01.747Z,932.97
2019-01-18T02:37:02.881Z,933
2019-01-18T02:38:03.287Z,933.06
2019-01-18T02:39:03.969Z,933.04
2019-01-18T02:40:05.099Z,933.06
2019-01-18T02:41:05.354Z,933.12
2019-01-18T02:42:05.760Z,933.01
2019-01-18T02:43:06.424Z,933.09
2019-01-18T02:44:07.661Z,933.1
2019-01-18T02:45:08.354Z,933.08
2019-01-18T02:46:08.775Z,933.07
2019-01-18T02:47:09.456Z,933.1
2019-01-18T02:48:10.693Z,933.1
2019-01-18T02:49:11.216Z,933.13
2019-01-18T02:50:11.633Z,933.1
2019-01-18T02:51:12.045Z,933.12
2019-01-18T02:52:12.727Z,933.12
2019-01-18T02:53:13.828Z,933.11
2019-01-18T02:54:14.818Z,933.1
2019-01-18T02:55:15.774Z,933.09
2019-01-18T02:56:16.927Z,933.04
2019-01-18T02:57:18.051Z,933.12
2019-01-18T02:58:18.455Z,933.12
2019-01-18T02:59:19.135Z,933.12
2019-01-18T03:00:19.820Z,933.13
2019-01-18T03:01:20.517Z,933.22
2019-01-18T03:02:20.925Z,933.21
2019-01-18T03:03:22.144Z,933.13
2019-01-18T03:04:22.831Z,933.17
2019-01-18T03:05:23.532Z,933.17
2019-01-18T03:06:24.494Z,933.19
2019-01-18T03:07:24.954Z,933.2
2019-01-18T03:08:25.640Z,933.16
2019-01-18T03:09:26.346Z,933.15
2019-01-18T03:10:27.587Z,933.13
2019-01-18T03:11:28.999Z,933.26
2019-01-18T03:12:29.683Z,933.16
2019-01-18T03:13:30.073Z,933.2
2019-01-18T03:14:30.756Z,933.24
2019-01-18T03:15:31.277Z,933.28
2019-01-18T03:16:31.817Z,933.3
2019-01-18T03:17:32.613Z,933.23
2019-01-18T03:18:33.385Z,933.38
2019-01-18T03:19:34.347Z,933.26
2019-01-18T03:20:35.040Z,933.32
2019-01-18T03:21:35.998Z,933.31
2019-01-18T03:22:36.974Z,933.37
2019-01-18T03:23:37.507Z,933.34
2019-01-18T03:24:38.474Z,933.36
2019-01-18T03:25:39.432Z,933.31
2019-01-18T03:26:39.843Z,933.36
2019-01-18T03:27:40.080Z,933.39
2019-01-18T03:28:40.762Z,933.38
2019-01-18T03:29:41.462Z,933.38
2019-01-18T03:30:42.157Z,933.45
2019-01-18T03:31:43.274Z,933.46
2019-01-18T03:32:44.497Z,933.41
2019-01-18T03:33:45.630Z,933.42
2019-01-18T03:34:46.590Z,933.45
2019-01-18T03:35:46.829Z,933.45
2019-01-18T03:36:47.255Z,933.49
2019-01-18T03:37:47.955Z,933.43
2019-01-18T03:38:48.949Z,933.42
2019-01-18T03:39:49.629Z,933.53
2019-01-18T03:40:50.036Z,933.49
2019-01-18T03:41:50.443Z,933.52
2019-01-18T03:42:51.573Z,933.61
2019-01-18T03:43:52.680Z,933.6
2019-01-18T03:44:53.918Z,933.58
2019-01-18T03:45:55.048Z,933.54
2019-01-18T03:46:55.733Z,933.53
2019-01-18T03:47:56.411Z,933.6
2019-01-18T03:48:57.378Z,933.59
2019-01-18T03:49:57.789Z,933.57
2019-01-18T03:50:58.194Z,933.56
2019-01-18T03:51:59.159Z,933.59
2019-01-18T03:53:00.395Z,933.65
2019-01-18T03:54:01.196Z,933.71
2019-01-18T03:55:01.460Z,933.69
2019-01-18T03:56:02.460Z,933.76
2019-01-18T03:57:02.908Z,933.73
2019-01-18T03:58:03.429Z,933.74
2019-01-18T03:59:04.396Z,933.73
2019-01-18T04:00:05.361Z,933.8
2019-01-18T04:01:06.318Z,933.75
2019-01-18T04:02:07.448Z,933.69
2019-01-18T04:03:08.001Z,933.73
2019-01-18T04:04:09.123Z,933.74
2019-01-18T04:05:09.530Z,933.78
2019-01-18T04:06:09.954Z,933.8
2019-01-18T04:07:11.364Z,933.79
2019-01-18T04:08:12.340Z,933.83
2019-01-18T04:09:13.027Z,933.87
2019-01-18T04:10:13.709Z,933.9
2019-01-18T04:11:14.118Z,933.87
2019-01-18T04:12:15.096Z,933.87
2019-01-18T04:13:16.264Z,933.9
2019-01-18T04:14:17.373Z,933.9
2019-01-18T04:15:18.059Z,933.92
2019-01-18T04:16:18.744Z,933.92
2019-01-18T04:17:19.724Z,933.93
2019-01-18T04:18:20.852Z,933.94
2019-01-18T04:19:21.537Z,933.91
2019-01-18T04:20:22.248Z,933.95
2019-01-18T04:21:22.666Z,933.94
2019-01-18T04:22:22.902Z,933.93
2019-01-18T04:23:23.863Z,933.93
2019-01-18T04:24:24.682Z,933.95
2019-01-18T04:25:25.650Z,933.99
2019-01-18T04:26:25.916Z,933.96
2019-01-18T04:27:26.331Z,933.96
2019-01-18T04:28:27.463Z,933.95
2019-01-18T04:29:28.431Z,933.97
2019-01-18T04:30:33.937Z,933.96
2019-01-18T04:31:34.342Z,933.99
2019-01-18T04:32:34.753Z,934.03
2019-01-18T04:33:35.713Z,934.02
2019-01-18T04:34:36.852Z,934.1
2019-01-18T04:35:37.101Z,934.11
2019-01-18T04:36:37.502Z,934.15
2019-01-18T04:37:38.460Z,934.16
2019-01-18T04:38:39.430Z,934.19
2019-01-18T04:39:39.835Z,934.23
2019-01-18T04:40:40.523Z,934.27
2019-01-18T04:41:40.768Z,934.3
2019-01-18T04:42:41.174Z,934.3
2019-01-18T04:43:41.859Z,934.33
2019-01-18T04:44:42.393Z,934.33
2019-01-18T04:45:43.641Z,934.38
2019-01-18T04:46:44.604Z,934.41
2019-01-18T04:47:45.287Z,934.37
2019-01-18T04:48:45.978Z,934.42
2019-01-18T04:49:46.386Z,934.41
2019-01-18T04:50:46.809Z,934.47
2019-01-18T04:51:47.500Z,934.45
2019-01-18T04:52:48.031Z,934.49
2019-01-18T04:53:48.722Z,934.51
2019-01-18T04:54:49.367Z,934.49
2019-01-18T04:55:50.498Z,934.54
2019-01-18T04:56:50.740Z,934.56
2019-01-18T04:57:51.011Z,934.56
2019-01-18T04:58:51.976Z,934.6
2019-01-18T04:59:53.100Z,934.62
2019-01-18T05:00:53.786Z,934.62
2019-01-18T05:01:54.744Z,934.64
2019-01-18T05:02:56.158Z,934.66
2019-01-18T05:03:56.869Z,934.64
2019-01-18T05:04:57.719Z,934.65
2019-01-18T05:05:58.804Z,934.73
2019-01-18T05:06:59.494Z,934.71
2019-01-18T05:08:00.745Z,934.74
2019-01-18T05:09:01.143Z,934.83
2019-01-18T05:10:01.829Z,934.82
2019-01-18T05:11:02.639Z,934.75
2019-01-18T05:12:02.925Z,934.83
2019-01-18T05:13:03.333Z,934.87
2019-01-18T05:14:04.297Z,934.94
2019-01-18T05:15:05.016Z,934.91
2019-01-18T05:16:05.440Z,934.95
2019-01-18T05:17:06.404Z,934.98
2019-01-18T05:18:07.369Z,935.01
2019-01-18T05:19:08.054Z,935
2019-01-18T05:20:08.480Z,935.01
2019-01-18T05:21:09.166Z,935.01
2019-01-18T05:22:10.292Z,935.03
2019-01-18T05:23:11.419Z,935.08
2019-01-18T05:24:12.381Z,935.07
2019-01-18T05:25:12.564Z,935.04
2019-01-18T05:26:13.528Z,935.08
2019-01-18T05:27:14.941Z,935.03
2019-01-18T05:28:15.907Z,935.09
2019-01-18T05:29:16.160Z,935.09
2019-01-18T05:30:17.292Z,935.14
2019-01-18T05:31:17.541Z,935.14
2019-01-18T05:32:18.219Z,935.13
2019-01-18T05:33:19.625Z,935.17
2019-01-18T05:34:20.151Z,935.23
2019-01-18T05:35:21.235Z,935.16
2019-01-18T05:36:21.657Z,935.26
2019-01-18T05:37:22.616Z,935.25
2019-01-18T05:38:23.021Z,935.27
2019-01-18T05:39:23.983Z,935.25
2019-01-18T05:40:24.392Z,935.25
2019-01-18T05:41:24.630Z,935.34
2019-01-18T05:42:25.606Z,935.33
2019-01-18T05:43:26.124Z,935.34
2019-01-18T05:44:26.804Z,935.36
2019-01-18T05:45:27.406Z,935.38
2019-01-18T05:46:28.538Z,935.43
2019-01-18T05:47:29.221Z,935.43
2019-01-18T05:48:29.627Z,935.45
2019-01-18T05:49:30.348Z,935.47
2019-01-18T05:50:30.752Z,935.46
2019-01-18T05:51:31.178Z,935.52
2019-01-18T05:52:33.131Z,935.52
2019-01-18T05:53:33.816Z,935.51
2019-01-18T05:54:34.104Z,935.5
2019-01-18T05:55:34.936Z,935.55
2019-01-18T05:56:35.181Z,935.56
2019-01-18T05:57:35.707Z,935.57
2019-01-18T05:58:36.948Z,935.59
2019-01-18T05:59:37.636Z,935.61
2019-01-18T06:00:38.333Z,935.63
2019-01-18T06:01:39.018Z,935.65
2019-01-18T06:02:40.147Z,935.65
2019-01-18T06:03:41.112Z,935.64
2019-01-18T06:04:42.071Z,935.66
2019-01-18T06:05:42.886Z,935.72
2019-01-18T06:06:43.958Z,935.66
2019-01-18T06:07:45.080Z,935.7
2019-01-18T06:08:45.808Z,935.72
2019-01-18T06:09:46.492Z,935.75
2019-01-18T06:10:46.904Z,935.76
2019-01-18T06:11:48.150Z,935.8
2019-01-18T06:12:49.554Z,935.77
2019-01-18T06:13:50.516Z,935.77
2019-01-18T06:14:51.202Z,935.79
2019-01-18T06:15:52.036Z,935.83
2019-01-18T06:16:52.720Z,935.83
2019-01-18T06:17:52.960Z,935.81
2019-01-18T06:18:53.365Z,935.83
2019-01-18T06:19:53.768Z,935.84
2019-01-18T06:20:54.171Z,935.85
2019-01-18T06:21:55.297Z,935.83
2019-01-18T06:22:55.977Z,935.83
2019-01-18T06:23:57.104Z,935.87
2019-01-18T06:24:57.515Z,935.89
2019-01-18T06:25:58.181Z,935.89
2019-01-18T06:26:58.868Z,935.91
2019-01-18T06:27:59.837Z,935.92
2019-01-18T06:29:00.098Z,935.92
2019-01-18T06:30:01.331Z,935.89
2019-01-18T06:31:02.343Z,935.89
2019-01-18T06:32:02.780Z,935.88
2019-01-18T06:33:03.530Z,935.91
2019-01-18T06:34:04.445Z,935.93
2019-01-18T06:35:04.780Z,935.93
2019-01-18T06:36:05.584Z,936.01
2019-01-18T06:37:06.185Z,935.99
2019-01-18T06:38:06.781Z,936.05
2019-01-18T06:39:07.446Z,936.02
2019-01-18T06:40:08.166Z,936.03
2019-01-18T06:41:08.849Z,936.07
2019-01-18T06:42:09.535Z,936.09
2019-01-18T06:43:09.944Z,936.11
2019-01-18T06:44:10.632Z,936.11
2019-01-18T06:45:11.223Z,936.14
2019-01-18T06:46:12.354Z,936.16
2019-01-18T06:47:13.085Z,936.17
2019-01-18T06:48:14.214Z,936.17
2019-01-18T06:49:15.002Z,936.22
2019-01-18T06:50:15.488Z,936.22
2019-01-18T06:51:16.618Z,936.24
2019-01-18T06:52:17.900Z,936.2
2019-01-18T06:53:17.724Z,936.24
2019-01-18T06:54:18.350Z,936.3
2019-01-18T06:55:18.866Z,936.31
2019-01-18T06:56:20.238Z,936.34
2019-01-18T06:57:20.921Z,936.34
2019-01-18T06:58:22.052Z,936.37
2019-01-18T06:59:22.631Z,936.35
2019-01-18T07:00:23.320Z,936.39
2019-01-18T07:01:24.005Z,936.38
2019-01-18T07:02:24.998Z,936.42
2019-01-18T07:03:26.176Z,936.38
2019-01-18T07:04:26.781Z,936.39
2019-01-18T07:05:27.916Z,936.44
2019-01-18T07:06:28.191Z,936.44
2019-01-18T07:07:29.016Z,936.49
2019-01-18T07:08:31.294Z,936.53
2019-01-18T07:08:42.401Z,936.5
2019-01-18T07:09:43.681Z,936.51
2019-01-18T07:09:55.889Z,936.51
2019-01-18T07:10:56.399Z,936.53
2019-01-18T07:11:57.086Z,936.51
2019-01-18T07:12:58.351Z,936.56
2019-01-18T07:13:59.076Z,936.58
2019-01-18T07:14:59.661Z,936.58
2019-01-18T07:16:00.785Z,936.64
2019-01-18T07:17:01.399Z,936.68
2019-01-18T07:18:01.881Z,936.69
2019-01-18T07:19:03.321Z,936.69
2019-01-18T07:20:04.094Z,936.7
2019-01-18T07:21:04.418Z,936.71
2019-01-18T07:22:05.548Z,936.74
2019-01-18T07:23:06.233Z,936.69
2019-01-18T07:24:07.364Z,936.74
2019-01-18T07:25:08.050Z,936.76
2019-01-18T07:26:09.182Z,936.74
2019-01-18T07:27:09.594Z,936.78
2019-01-18T07:28:10.555Z,936.76
2019-01-18T07:29:10.963Z,936.76
2019-01-18T07:30:11.661Z,936.77
2019-01-18T07:31:15.559Z,936.79
2019-01-18T07:32:15.964Z,936.83
2019-01-18T07:33:17.093Z,936.85
2019-01-18T07:34:17.512Z,936.8
2019-01-18T07:35:19.709Z,936.81
2019-01-18T07:35:30.510Z,936.81
2019-01-18T07:36:30.593Z,936.87
2019-01-18T07:37:31.724Z,936.87
2019-01-18T07:38:32.413Z,936.85
2019-01-18T07:39:33.544Z,936.88
2019-01-18T07:40:33.957Z,936.91
2019-01-18T07:41:34.649Z,936.91
2019-01-18T07:42:35.781Z,936.92
2019-01-18T07:43:37.190Z,936.95
2019-01-18T07:44:38.323Z,936.95
2019-01-18T07:45:39.457Z,936.99
2019-01-18T07:46:39.715Z,936.98
2019-01-18T07:47:41.876Z,936.95
2019-01-18T07:48:42.523Z,936.98
2019-01-18T07:49:43.210Z,937.03
2019-01-18T07:50:44.207Z,937.06
2019-01-18T07:51:45.345Z,937.04
2019-01-18T07:52:46.359Z,937.06
2019-01-18T07:53:47.046Z,937.08
2019-01-18T07:54:47.739Z,937.07
2019-01-18T07:55:48.435Z,937.13
2019-01-18T07:56:48.701Z,937.07
2019-01-18T07:57:49.731Z,937.13
2019-01-18T07:58:50.139Z,937.1
2019-01-18T07:59:51.154Z,937.13
2019-01-18T08:00:51.562Z,937.12
2019-01-18T08:01:51.973Z,937.16
2019-01-18T08:02:53.106Z,937.19
2019-01-18T08:03:53.516Z,937.17
2019-01-18T08:04:54.709Z,937.21
2019-01-18T08:05:55.156Z,937.2
2019-01-18T08:06:56.301Z,937.2
2019-01-18T08:07:56.714Z,937.22
2019-01-18T08:08:57.126Z,937.24
2019-01-18T08:09:57.989Z,937.29
2019-01-18T08:10:58.963Z,937.27
2019-01-18T08:11:59.391Z,937.29
2019-01-18T08:13:00.546Z,937.31
2019-01-18T08:14:00.962Z,937.29
2019-01-18T08:15:01.929Z,937.32
2019-01-18T08:16:02.619Z,937.32
2019-01-18T08:17:03.017Z,937.35
2019-01-18T08:18:04.013Z,937.37
2019-01-18T08:19:04.983Z,937.38
2019-01-18T08:20:05.395Z,937.41
2019-01-18T08:21:05.823Z,937.44
2019-01-18T08:22:06.239Z,937.42
2019-01-18T08:23:06.948Z,937.45
2019-01-18T08:24:07.470Z,937.42
2019-01-18T08:25:08.243Z,937.49
2019-01-18T08:26:09.003Z,937.47
2019-01-18T08:27:09.562Z,937.48
2019-01-18T08:28:09.969Z,937.52
2019-01-18T08:29:10.380Z,937.56
2019-01-18T08:30:10.816Z,937.57
2019-01-18T08:31:11.822Z,937.54
2019-01-18T08:32:12.521Z,937.55
2019-01-18T08:33:13.546Z,937.54
2019-01-18T08:34:14.724Z,937.58
2019-01-18T08:35:15.457Z,937.57
2019-01-18T08:36:15.640Z,937.58
2019-01-18T08:37:16.774Z,937.54
2019-01-18T08:38:17.571Z,937.57
2019-01-18T08:39:18.271Z,937.6
2019-01-18T08:40:19.406Z,937.58
2019-01-18T08:41:20.640Z,937.57
2019-01-18T08:42:21.124Z,937.61
2019-01-18T08:43:22.093Z,937.61
2019-01-18T08:44:22.785Z,937.63
2019-01-18T08:45:23.919Z,937.61
2019-01-18T08:46:24.343Z,937.62
2019-01-18T08:47:25.169Z,937.59
2019-01-18T08:48:25.613Z,937.62
2019-01-18T08:49:26.484Z,937.63
2019-01-18T08:50:26.893Z,937.64
2019-01-18T08:51:28.143Z,937.64
2019-01-18T08:52:28.552Z,937.66
2019-01-18T08:53:29.242Z,937.64
2019-01-18T08:54:29.933Z,937.65
2019-01-18T08:55:30.903Z,937.66
2019-01-18T08:56:31.147Z,937.65
2019-01-18T08:57:31.957Z,937.65
2019-01-18T08:58:32.651Z,937.68
2019-01-18T08:59:33.349Z,937.66
2019-01-18T09:00:34.486Z,937.63
2019-01-18T09:01:36.235Z,937.58
2019-01-18T09:02:37.374Z,937.62
2019-01-18T09:03:38.360Z,937.65
2019-01-18T09:04:38.705Z,937.7
2019-01-18T09:05:39.670Z,937.7
2019-01-18T09:06:40.380Z,937.7
2019-01-18T09:07:41.235Z,937.71
2019-01-18T09:08:41.442Z,937.7
2019-01-18T09:09:41.680Z,937.77
2019-01-18T09:10:42.841Z,937.79
2019-01-18T09:11:44.061Z,937.79
2019-01-18T09:12:44.549Z,937.87
2019-01-18T09:13:45.647Z,937.84
2019-01-18T09:14:46.062Z,937.82
2019-01-18T09:15:46.970Z,937.84
2019-01-18T09:16:47.631Z,937.81
2019-01-18T09:17:48.787Z,937.85
2019-01-18T09:18:49.268Z,937.86
2019-01-18T09:19:50.556Z,937.87
2019-01-18T09:20:51.273Z,937.84
2019-01-18T09:21:52.238Z,937.9
2019-01-18T09:22:53.354Z,937.9
2019-01-18T09:23:54.047Z,937.92
2019-01-18T09:24:54.775Z,937.88
2019-01-18T09:25:55.467Z,937.96
2019-01-18T09:26:55.876Z,937.94
2019-01-18T09:27:56.759Z,937.9
2019-01-18T09:28:57.454Z,937.97
2019-01-18T09:29:58.708Z,937.95
2019-01-18T09:30:58.889Z,937.95
2019-01-18T09:31:59.577Z,937.92
2019-01-18T09:33:00.267Z,938.01
2019-01-18T09:34:01.238Z,937.96
2019-01-18T09:35:01.656Z,937.96
2019-01-18T09:36:02.068Z,937.95
2019-01-18T09:37:02.759Z,937.97
2019-01-18T09:38:03.300Z,937.98
2019-01-18T09:39:04.436Z,937.95
2019-01-18T09:40:05.142Z,937.98
2019-01-18T09:41:05.850Z,937.94
2019-01-18T09:42:06.580Z,937.93
2019-01-18T09:43:07.549Z,937.96
2019-01-18T09:44:08.006Z,937.93
2019-01-18T09:45:08.199Z,937.99
2019-01-18T09:46:08.888Z,937.97
2019-01-18T09:47:09.615Z,938.01
2019-01-18T09:48:10.713Z,938.01
2019-01-18T09:49:11.122Z,937.98
2019-01-18T09:50:11.814Z,938.02
2019-01-18T09:51:12.507Z,938.02
2019-01-18T09:52:13.919Z,938.04
2019-01-18T09:53:14.609Z,938.04
2019-01-18T09:54:15.306Z,938.02
2019-01-18T09:55:15.722Z,938.05
2019-01-18T09:56:16.132Z,938.02
2019-01-18T09:57:16.865Z,938.04
2019-01-18T09:58:17.997Z,938.09
2019-01-18T09:59:19.134Z,938.05
2019-01-18T10:00:19.566Z,938.07
2019-01-18T10:01:20.713Z,938.09
2019-01-18T10:02:21.539Z,938.09
2019-01-18T10:03:22.228Z,938.15
2019-01-18T10:04:23.363Z,938.11
2019-01-18T10:05:23.616Z,938.09
2019-01-18T10:06:24.372Z,938.08
2019-01-18T10:07:25.063Z,938.13
2019-01-18T10:08:26.193Z,938.11
2019-01-18T10:09:26.886Z,938.07
2019-01-18T10:10:27.615Z,938.11
2019-01-18T10:11:28.055Z,938.06
2019-01-18T10:12:28.748Z,938.06
2019-01-18T10:13:29.166Z,938.11
2019-01-18T10:14:29.652Z,938.08
2019-01-18T10:15:30.794Z,938.1
2019-01-18T10:16:31.122Z,938.01
2019-01-18T10:17:31.680Z,937.99
2019-01-18T10:18:33.600Z,938.01
2019-01-18T10:19:33.927Z,938.02
2019-01-18T10:20:35.064Z,937.96
2019-01-18T10:21:35.480Z,937.96
2019-01-18T10:22:36.618Z,937.99
2019-01-18T10:23:37.307Z,938.01
2019-01-18T10:24:38.300Z,937.99
2019-01-18T10:25:39.441Z,937.95
2019-01-18T10:26:40.417Z,937.97
2019-01-18T10:27:40.828Z,938
2019-01-18T10:28:41.232Z,937.96
2019-01-18T10:29:42.205Z,937.92
2019-01-18T10:30:42.626Z,937.98
2019-01-18T10:31:43.409Z,937.99
2019-01-18T10:32:44.076Z,938
2019-01-18T10:33:45.150Z,938.04
2019-01-18T10:34:45.408Z,938.08
2019-01-18T10:35:45.825Z,938.1
2019-01-18T10:36:46.240Z,938.07
2019-01-18T10:37:47.237Z,938.08
2019-01-18T10:38:48.967Z,938.02
2019-01-18T10:39:48.247Z,938.03
2019-01-18T10:40:48.512Z,938
2019-01-18T10:41:48.843Z,938.09
2019-01-18T10:42:50.097Z,938.03
2019-01-18T10:43:50.516Z,938.03
2019-01-18T10:44:52.496Z,938.04
2019-01-18T10:45:03.678Z,938.03
2019-01-18T10:46:04.009Z,938.04
2019-01-18T10:47:04.430Z,938.02
2019-01-18T10:48:05.569Z,938.02
2019-01-18T10:49:06.725Z,937.99
2019-01-18T10:50:07.324Z,937.98
2019-01-18T10:51:08.040Z,937.98
2019-01-18T10:52:08.839Z,937.97
2019-01-18T10:53:09.984Z,937.97
2019-01-18T10:54:10.678Z,937.95
2019-01-18T10:55:11.376Z,937.97
2019-01-18T10:56:11.923Z,937.97
2019-01-18T10:57:12.661Z,937.99
2019-01-18T10:58:13.512Z,937.98
2019-01-18T10:59:14.207Z,937.97
2019-01-18T11:00:15.204Z,938.04
2019-01-18T11:01:15.624Z,938
2019-01-18T11:02:16.043Z,937.99
2019-01-18T11:03:16.742Z,938.08
2019-01-18T11:04:17.172Z,938.01
2019-01-18T11:05:18.595Z,937.97
2019-01-18T11:06:19.141Z,938.01
2019-01-18T11:07:19.618Z,937.99
2019-01-18T11:08:20.587Z,937.96
2019-01-18T11:09:22.338Z,938
2019-01-18T11:10:22.763Z,937.98
2019-01-18T11:11:23.905Z,937.99
2019-01-18T11:12:24.171Z,937.99
2019-01-18T11:13:25.160Z,937.95
2019-01-18T11:14:25.582Z,937.95
2019-01-18T11:15:26.763Z,937.94
2019-01-18T11:16:27.354Z,937.89
2019-01-18T11:17:27.607Z,937.94
2019-01-18T11:18:28.306Z,937.92
2019-01-18T11:19:29.007Z,937.92
2019-01-18T11:20:29.713Z,937.94
2019-01-18T11:21:29.874Z,937.94
2019-01-18T11:22:31.017Z,937.9
2019-01-18T11:23:31.938Z,937.97
2019-01-18T11:24:32.432Z,937.91
2019-01-18T11:25:33.201Z,937.88
2019-01-18T11:26:34.078Z,937.88
2019-01-18T11:27:35.140Z,937.82
2019-01-18T11:28:35.854Z,937.8
2019-01-18T11:29:36.549Z,937.8
2019-01-18T11:30:37.264Z,937.73
2019-01-18T11:31:38.243Z,937.7
2019-01-18T11:32:39.218Z,937.68
2019-01-18T11:33:40.362Z,937.69
2019-01-18T11:34:41.616Z,937.65
2019-01-18T11:35:42.265Z,937.64
2019-01-18T11:36:44.374Z,937.66
2019-01-18T11:37:46.203Z,937.64
2019-01-18T11:38:47.822Z,937.65
2019-01-18T11:38:58.798Z,937.63
2019-01-18T11:39:10.707Z,937.63
2019-01-18T11:39:22.977Z,937.66
2019-01-18T11:39:34.892Z,937.62
2019-01-18T11:40:35.027Z,937.63
2019-01-18T11:41:36.447Z,937.63
2019-01-18T11:42:37.147Z,937.63
2019-01-18T11:43:37.566Z,937.59
2019-01-18T11:44:37.988Z,937.56
2019-01-18T11:45:38.409Z,937.51
2019-01-18T11:46:38.823Z,937.51
2019-01-18T11:47:39.524Z,937.48
2019-01-18T11:48:40.671Z,937.48
2019-01-18T11:49:41.093Z,937.52
2019-01-18T11:50:41.480Z,937.51
2019-01-18T11:51:42.177Z,937.51
2019-01-18T11:52:42.724Z,937.51
2019-01-18T11:53:43.436Z,937.45
2019-01-18T11:54:44.433Z,937.48
2019-01-18T11:55:44.687Z,937.48
2019-01-18T11:56:45.390Z,937.53
2019-01-18T11:57:46.090Z,937.43
2019-01-18T11:58:46.525Z,937.48
2019-01-18T11:59:51.027Z,937.46
2019-01-18T12:00:51.571Z,937.49
2019-01-18T12:01:52.715Z,937.46
2019-01-18T12:02:53.136Z,937.47
2019-01-18T12:03:54.781Z,937.47
2019-01-18T12:04:05.905Z,937.47
2019-01-18T12:05:07.008Z,937.43
2019-01-18T12:06:07.717Z,937.42
2019-01-18T12:07:09.019Z,937.42
2019-01-18T12:07:22.536Z,937.43
2019-01-18T12:08:23.292Z,937.49
2019-01-18T12:09:23.988Z,937.52
2019-01-18T12:10:24.970Z,937.48
2019-01-18T12:11:25.394Z,937.45
2019-01-18T12:12:25.812Z,937.38
2019-01-18T12:13:26.230Z,937.33
2019-01-18T12:14:27.373Z,937.3
2019-01-18T12:15:28.081Z,937.36
2019-01-18T12:16:28.504Z,937.33
2019-01-18T12:17:30.570Z,937.32
2019-01-18T12:17:41.238Z,937.37
2019-01-18T12:18:41.235Z,937.33
2019-01-18T12:19:42.218Z,937.33
2019-01-18T12:20:42.641Z,937.31
2019-01-18T12:21:43.784Z,937.3
2019-01-18T12:22:44.491Z,937.33
2019-01-18T12:23:44.736Z,937.36
2019-01-18T12:24:45.434Z,937.29
2019-01-18T12:25:46.132Z,937.28
2019-01-18T12:26:46.574Z,937.25
2019-01-18T12:27:46.998Z,937.27
2019-01-18T12:28:47.549Z,937.18
2019-01-18T12:29:48.013Z,937.14
2019-01-18T12:30:48.442Z,937.14
2019-01-18T12:31:50.820Z,937.18